.
WxDataArchive / Data Records for 2015-11-15
2015-11-14 November 2015 2015-11-16

Data Records for Sunday, 15 November 2015

Time	Temp	Chill	HIndex	Humid	Dewpt	 Wind 	HiWind	WindDir	Rain 	Barom
-----	----	-----	------	-----	-----	------	------	-------	-----	-----
00:00	46.4	46.4	46.4	50	28.8	1	5	248	0.00	30.235 
00:05	46.4	46.4	46.4	50	28.8	0	3	248	0.00	30.235 
00:10	46.2	46.2	46.2	51	29.1	0	2	248	0.00	30.235 
00:15	46.1	46.1	46.1	51	29.0	0	1	248	0.00	30.235 
00:20	46.0	46.0	46.0	51	28.9	0	2	248	0.00	30.235 
00:25	45.8	45.8	45.8	52	29.2	0	1	248	0.00	30.235 
00:30	45.7	45.7	45.7	53	29.6	0	1	248	0.00	30.238 
00:35	45.5	45.5	45.5	53	29.4	0	2	248	0.00	30.238 
00:40	45.4	45.4	45.4	53	29.3	0	1	248	0.00	30.238 
00:45	45.2	45.2	45.2	54	29.6	0	2	248	0.00	30.243 
00:50	44.9	44.9	44.9	54	29.3	0	1	248	0.00	30.243 
00:55	44.6	44.6	44.6	55	29.4	0	1	248	0.00	30.243 
01:00	44.5	44.5	44.5	55	29.3	0	1	248	0.00	30.243 
01:05	44.3	44.3	44.3	56	29.6	0	1	248	0.00	30.243 
01:10	44.2	44.2	44.2	56	29.5	0	1	248	0.00	30.243 
01:15	44.1	44.1	44.1	56	29.4	0	1	248	0.00	30.245 
01:20	43.9	43.9	43.9	57	29.7	0	1	248	0.00	30.245 
01:25	43.9	43.9	43.9	57	29.7	0	1	248	0.00	30.245 
01:30	44.1	44.1	44.1	57	29.9	0	1	248	0.00	30.242 
01:35	44.2	44.2	44.2	57	29.9	0	1	248	0.00	30.242 
01:40	44.3	44.3	44.3	57	30.0	0	1	248	0.00	30.242 
01:45	44.5	44.5	44.5	56	29.8	0	1	248	0.00	30.243 
01:50	44.6	44.6	44.6	56	29.9	0	1	248	0.00	30.243 
01:55	44.9	44.9	44.9	56	30.2	0	2	248	0.00	30.243 
02:00	45.2	45.2	45.2	55	30.0	0	2	248	0.00	30.241 
02:05	45.5	45.5	45.5	55	30.3	0	1	248	0.00	30.241 
02:10	45.5	45.5	45.5	55	30.3	0	4	248	0.00	30.241 
02:15	45.8	45.8	45.8	54	30.1	0	4	248	0.00	30.244 
02:20	46.0	46.0	46.0	54	30.3	0	2	248	0.00	30.244 
02:25	46.0	46.0	46.0	54	30.3	0	1	248	0.00	30.244 
02:30	45.8	45.8	45.8	54	30.1	0	1	248	0.00	30.247 
02:35	46.0	46.0	46.0	54	30.3	0	1	248	0.00	30.247 
02:40	46.0	46.0	46.0	54	30.3	0	1	248	0.00	30.247 
02:45	45.8	45.8	45.8	55	30.6	0	1	248	0.00	30.245 
02:50	45.7	45.7	45.7	55	30.5	0	2	248	0.00	30.245 
02:55	45.5	45.5	45.5	55	30.3	0	1	248	0.00	30.245 
03:00	45.5	45.5	45.5	56	30.7	0	1	248	0.00	30.248 
03:05	45.7	45.7	45.7	55	30.5	0	2	248	0.00	30.248 
03:10	45.7	45.7	45.7	55	30.5	0	3	248	0.00	30.248 
03:15	45.7	45.7	45.7	55	30.5	0	1	248	0.00	30.249 
03:20	45.8	45.8	45.8	55	30.6	0	2	248	0.00	30.249 
03:25	45.7	45.7	45.7	56	30.9	0	2	248	0.00	30.249 
03:30	45.5	45.5	45.5	56	30.7	0	1	248	0.00	30.247 
03:35	45.5	45.5	45.5	56	30.7	0	3	248	0.00	30.247 
03:40	45.4	45.4	45.4	57	31.1	0	1	248	0.00	30.247 
03:45	45.2	45.2	45.2	57	30.9	0	4	248	0.00	30.247 
03:50	45.2	45.2	45.2	58	31.3	0	1	248	0.00	30.247 
03:55	45.1	45.1	45.1	58	31.2	0	2	248	0.00	30.247 
04:00	45.1	45.1	45.1	58	31.2	0	1	248	0.00	30.247 
04:05	44.9	44.9	44.9	58	31.0	0	1	248	0.00	30.247 
04:10	44.8	44.8	44.8	59	31.4	0	1	248	0.00	30.247 
04:15	44.6	44.6	44.6	59	31.2	0	2	248	0.00	30.249 
04:20	44.6	44.6	44.6	59	31.2	0	1	248	0.00	30.249 
04:25	44.6	44.6	44.6	60	31.6	0	1	248	0.00	30.249 
04:30	44.5	44.5	44.5	60	31.5	0	1	248	0.00	30.250 
04:35	44.6	44.6	44.6	60	31.6	0	4	248	0.00	30.250 
04:40	44.6	44.6	44.6	60	31.6	0	1	248	0.00	30.250 
04:45	44.6	44.6	44.6	60	31.6	0	2	248	0.00	30.253 
04:50	44.8	44.8	44.8	60	31.8	0	1	248	0.00	30.253 
04:55	44.8	44.8	44.8	60	31.8	0	1	248	0.00	30.253 
05:00	44.8	44.8	44.8	60	31.8	0	1	248	0.00	30.258 
05:05	44.8	44.8	44.8	60	31.8	0	2	248	0.00	30.258 
05:10	44.9	44.9	44.9	60	31.9	0	3	248	0.00	30.258 
05:15	44.9	44.9	44.9	60	31.9	0	1	248	0.00	30.266 
05:20	44.9	44.9	44.9	60	31.9	0	2	248	0.00	30.266 
05:25	44.9	44.9	44.9	60	31.9	0	1	248	0.00	30.266 
05:30	44.9	44.9	44.9	60	31.9	0	1	248	0.00	30.267 
05:35	44.8	44.8	44.8	61	32.2	0	2	248	0.00	30.267 
05:40	44.8	44.8	44.8	61	32.2	0	1	248	0.00	30.267 
05:45	44.6	44.6	44.6	61	32.0	0	1	248	0.00	30.268 
05:50	44.5	44.5	44.5	62	32.3	0	3	248	0.00	30.268 
05:55	44.3	44.3	44.3	62	32.1	0	2	248	0.00	30.268 
06:00	44.2	44.2	44.2	62	32.0	0	2	248	0.00	30.269 
06:05	44.2	44.2	44.2	62	32.0	0	1	248	0.00	30.269 
06:10	44.1	44.1	44.1	63	32.3	0	1	248	0.00	30.269 
06:15	43.8	43.8	43.8	63	32.0	0	1	248	0.00	30.273 
06:20	43.6	43.6	43.6	63	31.8	0	1	248	0.00	30.273 
06:25	43.3	43.3	43.3	64	32.0	0	1	248	0.00	30.273 
06:30	43.2	43.2	43.2	64	31.9	0	1	248	0.00	30.277 
06:35	43.1	43.1	43.1	65	32.1	0	1	248	0.00	30.277 
06:40	42.9	42.9	42.9	65	32.0	0	1	248	0.00	30.277 
06:45	42.8	42.8	42.8	65	31.9	0	1	248	0.00	30.279 
06:50	42.6	42.6	42.6	66	32.0	0	1	248	0.00	30.279 
06:55	42.5	42.5	42.5	66	32.0	0	1	248	0.00	30.279 
07:00	42.3	42.3	42.3	67	32.1	0	1	248	0.00	30.280 
07:05	42.3	42.3	42.3	67	32.1	0	1	248	0.00	30.280 
07:10	42.5	42.5	42.5	67	32.3	0	1	248	0.00	30.280 
07:15	42.6	42.6	42.6	67	32.4	0	1	248	0.00	30.284 
07:20	42.5	42.5	42.5	67	32.3	0	1	248	0.00	30.284 
07:25	42.3	42.3	42.3	68	32.5	0	1	248	0.00	30.284 
07:30	42.2	42.2	42.2	68	32.4	0	1	248	0.00	30.286 
07:35	42.1	42.1	42.1	68	32.3	0	0	---	0.00	30.286 
07:40	41.9	41.9	41.9	68	32.1	0	0	---	0.00	30.286 
07:45	41.8	41.8	41.8	69	32.4	0	1	248	0.00	30.287 
07:50	41.8	41.8	41.8	69	32.4	0	1	248	0.00	30.287 
07:55	41.8	41.8	41.8	69	32.4	0	1	248	0.00	30.287 
08:00	41.8	41.8	41.8	69	32.4	0	1	248	0.00	30.288 
08:05	41.9	41.9	41.9	70	32.8	0	1	248	0.00	30.288 
08:10	42.3	42.3	42.3	69	32.9	0	1	248	0.00	30.288 
08:15	42.6	42.6	42.6	69	33.2	0	3	248	0.00	30.291 
08:20	43.1	43.1	43.1	68	33.3	0	4	248	0.00	30.291 
08:25	43.5	43.5	43.5	67	33.3	0	1	248	0.00	30.291 
08:30	43.8	43.8	43.8	66	33.2	0	4	248	0.00	30.289 
08:35	44.1	44.1	44.1	66	33.5	0	1	248	0.00	30.289 
08:40	44.2	44.2	44.2	65	33.2	0	3	248	0.00	30.289 
08:45	44.5	44.5	44.5	65	33.5	0	3	248	0.00	30.292 
08:50	44.8	44.8	44.8	65	33.8	0	2	248	0.00	30.292 
08:55	44.9	44.9	44.9	64	33.5	0	2	248	0.00	30.292 
09:00	45.4	45.4	45.4	64	33.9	0	2	248	0.00	30.294 
09:05	45.8	45.8	45.8	63	33.9	1	4	248	0.00	30.294 
09:10	46.2	46.2	46.2	62	33.9	0	2	248	0.00	30.294 
09:15	46.7	46.7	46.7	62	34.4	0	4	248	0.00	30.296 
09:20	47.1	47.1	47.1	61	34.4	0	3	248	0.00	30.296 
09:25	47.6	47.6	47.6	60	34.4	0	2	248	0.00	30.296 
09:30	48.0	48.0	48.0	59	34.4	0	2	248	0.00	30.296 
09:35	48.5	48.5	48.5	58	34.4	0	3	248	0.00	30.296 
09:40	48.8	48.8	48.8	58	34.7	0	2	248	0.00	30.296 
09:45	49.1	49.1	49.1	57	34.5	1	4	270	0.00	30.294 
09:50	49.4	49.4	49.4	57	34.8	1	3	270	0.00	30.294 
09:55	49.8	49.8	49.8	56	34.7	1	3	270	0.00	30.294 
10:00	50.1	50.1	50.1	55	34.6	0	2	270	0.00	30.293 
10:05	50.5	50.5	50.5	54	34.5	0	4	270	0.00	30.293 
10:10	50.8	50.8	50.8	54	34.8	1	5	270	0.00	30.293 
10:15	51.1	51.1	51.1	53	34.6	1	3	248	0.00	30.290 
10:20	51.4	51.4	51.4	53	34.8	0	1	248	0.00	30.290 
10:25	51.9	51.9	51.9	53	35.3	0	3	248	0.00	30.290 
10:30	52.3	52.3	52.3	52	35.2	0	4	248	0.00	30.282 
10:35	52.8	52.8	52.8	51	35.2	0	2	248	0.00	30.282 
10:40	53.2	53.2	53.2	50	35.0	1	5	248	0.00	30.282 
10:45	53.6	53.6	53.6	49	34.9	1	4	248	0.00	30.279 
10:50	54.1	54.1	54.1	49	35.4	1	4	248	0.00	30.279 
10:55	54.5	54.5	54.5	47	34.7	1	4	248	0.00	30.279 
11:00	54.8	54.8	54.8	47	35.0	1	3	248	0.00	30.281 
11:05	55.3	55.3	55.3	47	35.4	1	3	248	0.00	30.281 
11:10	55.7	55.7	55.7	46	35.2	1	4	248	0.00	30.281 
11:15	56.0	56.0	56.0	46	35.5	0	3	248	0.00	30.277 
11:20	56.3	56.3	56.3	45	35.2	1	4	248	0.00	30.277 
11:25	56.6	56.6	56.6	46	36.1	0	3	248	0.00	30.277 
11:30	56.9	56.9	56.9	44	35.2	1	3	225	0.00	30.275 
11:35	57.3	57.3	57.3	44	35.6	1	3	225	0.00	30.275 
11:40	57.6	57.6	57.6	42	34.7	1	2	225	0.00	30.275 
11:45	58.0	58.0	58.0	42	35.0	1	6	248	0.00	30.273 
11:50	58.3	58.3	58.3	42	35.3	1	4	248	0.00	30.273 
11:55	58.6	58.6	58.6	41	35.0	1	3	248	0.00	30.273 
12:00	59.0	59.0	59.0	42	35.9	1	3	248	0.00	30.271 
12:05	59.2	59.2	59.2	41	35.5	0	3	248	0.00	30.271 
12:10	59.5	59.5	59.5	40	35.2	0	2	248	0.00	30.271 
12:15	59.6	59.6	59.6	40	35.3	0	2	248	0.00	30.264 
12:20	60.2	60.2	60.2	40	35.8	1	3	248	0.00	30.264 
12:25	60.7	60.7	60.7	39	35.6	1	3	248	0.00	30.264 
12:30	61.0	61.0	61.0	37	34.5	1	4	248	0.00	30.254 
12:35	61.2	61.2	61.2	39	36.0	1	3	248	0.00	30.254 
12:40	61.3	61.3	61.3	37	34.8	1	3	248	0.00	30.254 
12:45	61.5	61.5	61.5	35	33.6	1	4	248	0.00	30.246 
12:50	61.8	61.8	61.8	37	35.3	1	3	248	0.00	30.246 
12:55	62.0	62.0	62.0	35	34.0	1	4	270	0.00	30.246 
13:00	62.1	62.1	62.1	35	34.1	1	4	248	0.00	30.240 
13:05	62.3	62.3	62.3	33	32.8	1	5	248	0.00	30.240 
13:10	62.6	62.6	62.6	33	33.1	1	9	248	0.00	30.240 
13:15	62.6	62.6	62.6	34	33.8	1	9	248	0.00	30.236 
13:20	62.9	62.9	62.9	34	34.1	2	4	270	0.00	30.236 
13:25	63.1	63.1	63.1	35	35.0	1	3	270	0.00	30.236 
13:30	63.2	63.2	63.2	35	35.1	1	4	248	0.00	30.235 
13:35	63.4	63.4	63.4	33	33.8	2	4	270	0.00	30.235 
13:40	63.5	63.5	63.5	32	33.1	1	4	270	0.00	30.235 
13:45	63.9	63.9	63.9	31	32.7	1	5	270	0.00	30.231 
13:50	64.0	64.0	64.0	32	33.5	1	4	270	0.00	30.231 
13:55	64.2	64.2	64.2	31	32.9	1	5	292	0.00	30.231 
14:00	64.2	64.2	64.2	30	32.1	2	5	270	0.00	30.222 
14:05	64.0	64.0	64.0	29	31.1	1	4	248	0.00	30.222 
14:10	64.0	64.0	64.0	28	30.2	2	9	248	0.00	30.222 
14:15	63.9	63.9	63.9	29	31.0	2	4	270	0.00	30.220 
14:20	63.9	63.9	63.9	30	31.9	1	4	270	0.00	30.220 
14:25	64.0	64.0	64.0	31	32.8	1	2	270	0.00	30.220 
14:30	64.0	64.0	64.0	31	32.8	1	3	270	0.00	30.219 
14:35	64.3	64.3	64.3	29	31.4	1	5	270	0.00	30.219 
14:40	64.5	64.5	64.5	31	33.2	0	2	248	0.00	30.219 
14:45	64.5	64.5	64.5	30	32.4	1	4	248	0.00	30.218 
14:50	64.5	64.5	64.5	28	30.7	1	9	248	0.00	30.218 
14:55	64.3	64.3	64.3	30	32.2	1	3	248	0.00	30.218 
15:00	64.3	64.3	64.3	28	30.5	2	6	248	0.00	30.217 
15:05	64.5	64.5	64.5	28	30.7	2	11	270	0.00	30.217 
15:10	64.7	64.7	64.7	28	30.8	1	4	270	0.00	30.217 
15:15	64.7	64.7	64.7	29	31.7	1	3	270	0.00	30.212 
15:20	64.7	64.7	64.7	28	30.8	1	5	270	0.00	30.212 
15:25	64.7	64.7	64.7	28	30.8	2	4	270	0.00	30.212 
15:30	64.5	64.5	64.5	29	31.5	1	4	270	0.00	30.211 
15:35	64.3	64.3	64.3	30	32.2	1	5	270	0.00	30.211 
15:40	64.3	64.3	64.3	28	30.5	1	4	248	0.00	30.211 
15:45	64.2	64.2	64.2	29	31.3	2	4	248	0.00	30.214 
15:50	64.0	64.0	64.0	28	30.2	1	4	248	0.00	30.214 
15:55	64.0	64.0	64.0	28	30.2	1	4	248	0.00	30.214 
16:00	63.9	63.9	63.9	29	31.0	1	3	248	0.00	30.213 
16:05	63.7	63.7	63.7	29	30.8	1	4	248	0.00	30.213 
16:10	63.5	63.5	63.5	29	30.7	0	2	248	0.00	30.213 
16:15	63.4	63.4	63.4	28	29.7	1	4	248	0.00	30.213 
16:20	63.2	63.2	63.2	29	30.4	1	3	248	0.00	30.213 
16:25	62.9	62.9	62.9	29	30.2	1	4	248	0.00	30.213 
16:30	62.7	62.7	62.7	30	30.8	1	2	270	0.00	30.214 
16:35	62.6	62.6	62.6	30	30.7	1	4	270	0.00	30.214 
16:40	62.4	62.4	62.4	31	31.4	0	1	270	0.00	30.214 
16:45	62.1	62.1	62.1	30	30.3	0	2	270	0.00	30.215 
16:50	61.8	61.8	61.8	31	30.8	0	2	270	0.00	30.215 
16:55	61.6	61.6	61.6	31	30.7	1	3	270	0.00	30.215 
17:00	61.5	61.5	61.5	31	30.6	0	1	270	0.00	30.214 
17:05	61.2	61.2	61.2	31	30.3	0	1	270	0.00	30.214 
17:10	60.9	60.9	60.9	32	30.8	0	1	270	0.00	30.214 
17:15	60.4	60.4	60.4	32	30.4	0	1	270	0.00	30.216 
17:20	59.8	59.8	59.8	34	31.4	0	1	270	0.00	30.216 
17:25	59.3	59.3	59.3	34	30.9	0	1	270	0.00	30.216 
17:30	59.0	59.0	59.0	35	31.4	0	1	270	0.00	30.219 
17:35	58.4	58.4	58.4	36	31.6	0	1	270	0.00	30.219 
17:40	58.0	58.0	58.0	36	31.2	0	0	---	0.00	30.219 
17:45	57.3	57.3	57.3	38	31.9	0	0	---	0.00	30.225 
17:50	56.6	56.6	56.6	38	31.3	0	0	---	0.00	30.225 
17:55	56.0	56.0	56.0	39	31.4	0	0	---	0.00	30.225 
18:00	55.4	55.4	55.4	40	31.5	0	0	---	0.00	30.227 
18:05	54.7	54.7	54.7	42	32.1	0	0	---	0.00	30.227 
18:10	53.9	53.9	53.9	43	31.9	0	0	---	0.00	30.227 
18:15	53.3	53.3	53.3	44	31.9	0	0	---	0.00	30.231 
18:20	52.8	52.8	52.8	45	32.1	0	0	---	0.00	30.231 
18:25	52.2	52.2	52.2	46	32.1	0	0	---	0.00	30.231 
18:30	51.6	51.6	51.6	47	32.0	0	0	---	0.00	30.233 
18:35	51.3	51.3	51.3	47	31.8	0	0	---	0.00	30.233 
18:40	50.8	50.8	50.8	49	32.3	0	0	---	0.00	30.233 
18:45	50.4	50.4	50.4	50	32.5	0	0	---	0.00	30.233 
18:50	49.9	49.9	49.9	50	32.0	0	0	---	0.00	30.233 
18:55	49.5	49.5	49.5	51	32.1	0	0	---	0.00	30.233 
19:00	49.1	49.1	49.1	52	32.2	0	0	---	0.00	30.234 
19:05	48.6	48.6	48.6	52	31.8	0	0	---	0.00	30.234 
19:10	48.2	48.2	48.2	54	32.3	0	0	---	0.00	30.234 
19:15	47.9	47.9	47.9	54	32.1	0	0	---	0.00	30.235 
19:20	47.6	47.6	47.6	56	32.7	0	0	---	0.00	30.235 
19:25	47.3	47.3	47.3	57	32.8	0	0	---	0.00	30.235 
19:30	47.0	47.0	47.0	57	32.6	0	0	---	0.00	30.236 
19:35	46.7	46.7	46.7	58	32.7	0	0	---	0.00	30.236 
19:40	46.4	46.4	46.4	59	32.9	0	0	---	0.00	30.236 
19:45	46.2	46.2	46.2	60	33.1	0	0	---	0.00	30.237 
19:50	46.1	46.1	46.1	60	33.0	0	0	---	0.00	30.237 
19:55	45.8	45.8	45.8	61	33.1	0	0	---	0.00	30.237 
20:00	45.7	45.7	45.7	61	33.0	0	0	---	0.00	30.236 
20:05	45.4	45.4	45.4	62	33.2	0	0	---	0.00	30.236 
20:10	45.2	45.2	45.2	62	33.0	0	0	---	0.00	30.236 
20:15	45.2	45.2	45.2	62	33.0	0	0	---	0.00	30.233 
20:20	45.2	45.2	45.2	62	33.0	0	0	---	0.00	30.233 
20:25	45.1	45.1	45.1	62	32.9	0	0	---	0.00	30.233 
20:30	45.1	45.1	45.1	63	33.3	0	0	---	0.00	30.232 
20:35	44.9	44.9	44.9	63	33.1	0	0	---	0.00	30.232 
20:40	44.9	44.9	44.9	63	33.1	0	0	---	0.00	30.232 
20:45	44.8	44.8	44.8	63	33.0	0	0	---	0.00	30.232 
20:50	44.8	44.8	44.8	63	33.0	0	0	---	0.00	30.232 
20:55	44.6	44.6	44.6	63	32.8	0	0	---	0.00	30.232 
21:00	44.5	44.5	44.5	64	33.1	0	0	---	0.00	30.231 
21:05	44.3	44.3	44.3	64	32.9	0	0	---	0.00	30.231 
21:10	44.2	44.2	44.2	65	33.2	0	0	---	0.00	30.231 
21:15	44.1	44.1	44.1	65	33.1	0	0	---	0.00	30.225 
21:20	44.1	44.1	44.1	65	33.1	0	0	---	0.00	30.225 
21:25	44.1	44.1	44.1	65	33.1	0	0	---	0.00	30.225 
21:30	44.1	44.1	44.1	65	33.1	0	0	---	0.00	30.225 
21:35	44.2	44.2	44.2	65	33.2	0	0	---	0.00	30.225 
21:40	44.1	44.1	44.1	65	33.1	0	0	---	0.00	30.225 
21:45	44.2	44.2	44.2	65	33.2	0	0	---	0.00	30.224 
21:50	44.2	44.2	44.2	65	33.2	0	0	---	0.00	30.224 
21:55	44.3	44.3	44.3	65	33.3	0	0	---	0.00	30.224 
22:00	44.3	44.3	44.3	65	33.3	0	0	---	0.00	30.223 
22:05	44.3	44.3	44.3	64	32.9	0	0	---	0.00	30.223 
22:10	44.3	44.3	44.3	64	32.9	0	0	---	0.00	30.223 
22:15	44.3	44.3	44.3	64	32.9	0	0	---	0.00	30.219 
22:20	44.3	44.3	44.3	64	32.9	0	0	---	0.00	30.219 
22:25	44.5	44.5	44.5	64	33.1	0	1	270	0.00	30.219 
22:30	44.6	44.6	44.6	64	33.2	0	0	---	0.00	30.218 
22:35	44.9	44.9	44.9	64	33.5	0	0	---	0.00	30.218 
22:40	45.1	45.1	45.1	63	33.3	0	0	---	0.00	30.218 
22:45	45.2	45.2	45.2	62	33.0	0	0	---	0.00	30.215 
22:50	45.2	45.2	45.2	62	33.0	0	0	---	0.00	30.215 
22:55	45.4	45.4	45.4	62	33.2	0	0	---	0.00	30.215 
23:00	45.2	45.2	45.2	62	33.0	0	0	---	0.00	30.216 
23:05	45.2	45.2	45.2	62	33.0	0	0	---	0.00	30.216 
23:10	45.2	45.2	45.2	62	33.0	0	1	270	0.00	30.216 
23:15	45.5	45.5	45.5	61	32.8	0	1	270	0.00	30.213 
23:20	45.7	45.7	45.7	60	32.6	0	0	---	0.00	30.213 
23:25	45.8	45.8	45.8	60	32.7	0	1	270	0.00	30.213 
23:30	46.0	46.0	46.0	59	32.5	0	1	270	0.00	30.211 
23:35	46.1	46.1	46.1	59	32.6	0	1	270	0.00	30.211 
23:40	46.2	46.2	46.2	58	32.2	0	0	---	0.00	30.211 
23:45	46.2	46.2	46.2	58	32.2	0	0	---	0.00	30.208 
23:50	46.0	46.0	46.0	58	32.1	0	0	---	0.00	30.208 
23:55	45.8	45.8	45.8	59	32.3	0	0	---	0.00	30.208 

CoCoRaHS
IN-AL-39
A2 Web Hosting
Creative Commons License
GoDaddy
search engine by freefind advanced

loaded 2018-11-19 19:19:50 • last modified 2010-11-18 10:43:29
Privacy PolicyDisclaimer
• wx.awcolley.com is powered by PmWiki v.2002016 •
• all content (unless otherwise noted) © 2018 A W Colley